sensor_id;sensor_type;location;lat;lon;timestamp;temperature;humidity
64924;HTU21D;51436;44.692;39.214;2024-01-30T00:01:32;-2.15;73.10
64924;HTU21D;51436;44.692;39.214;2024-01-30T00:03:59;-2.16;73.00
64924;HTU21D;51436;44.692;39.214;2024-01-30T00:06:25;-2.20;73.03
64924;HTU21D;51436;44.692;39.214;2024-01-30T00:08:51;-2.19;72.98
64924;HTU21D;51436;44.692;39.214;2024-01-30T00:11:19;-2.17;72.99
64924;HTU21D;51436;44.692;39.214;2024-01-30T00:13:46;-2.12;72.93
64924;HTU21D;51436;44.692;39.214;2024-01-30T00:16:25;-2.08;72.77
64924;HTU21D;51436;44.692;39.214;2024-01-30T00:18:52;-2.10;72.74
64924;HTU21D;51436;44.692;39.214;2024-01-30T00:21:19;-2.10;72.79
64924;HTU21D;51436;44.692;39.214;2024-01-30T00:23:46;-2.13;72.83
64924;HTU21D;51436;44.692;39.214;2024-01-30T00:26:35;-2.19;72.73
64924;HTU21D;51436;44.692;39.214;2024-01-30T00:29:02;-2.17;72.87
64924;HTU21D;51436;44.692;39.214;2024-01-30T00:31:29;-2.16;72.90
64924;HTU21D;51436;44.692;39.214;2024-01-30T00:33:58;-2.14;72.77
64924;HTU21D;51436;44.692;39.214;2024-01-30T00:36:25;-2.16;72.80
64924;HTU21D;51436;44.692;39.214;2024-01-30T00:38:51;-2.14;72.87
64924;HTU21D;51436;44.692;39.214;2024-01-30T00:41:18;-2.13;72.86
64924;HTU21D;51436;44.692;39.214;2024-01-30T00:43:45;-2.09;72.82
64924;HTU21D;51436;44.692;39.214;2024-01-30T00:46:14;-2.09;72.73
64924;HTU21D;51436;44.692;39.214;2024-01-30T00:48:41;-2.07;72.84
64924;HTU21D;51436;44.692;39.214;2024-01-30T00:51:08;-2.06;72.74
64924;HTU21D;51436;44.692;39.214;2024-01-30T00:53:34;-2.09;72.87
64924;HTU21D;51436;44.692;39.214;2024-01-30T00:56:01;-2.07;72.89
64924;HTU21D;51436;44.692;39.214;2024-01-30T00:58:30;-2.04;72.81
64924;HTU21D;51436;44.692;39.214;2024-01-30T01:00:59;-2.03;72.83
64924;HTU21D;51436;44.692;39.214;2024-01-30T01:03:26;-2.04;72.85
64924;HTU21D;51436;44.692;39.214;2024-01-30T01:05:52;-2.06;72.84
64924;HTU21D;51436;44.692;39.214;2024-01-30T01:08:18;-2.07;72.96
64924;HTU21D;51436;44.692;39.214;2024-01-30T01:10:46;-2.04;72.83
64924;HTU21D;51436;44.692;39.214;2024-01-30T01:13:12;-2.12;72.90
64924;HTU21D;51436;44.692;39.214;2024-01-30T01:15:43;-2.18;72.96
64924;HTU21D;51436;44.692;39.214;2024-01-30T01:18:18;-2.19;72.98
64924;HTU21D;51436;44.692;39.214;2024-01-30T01:20:47;-2.19;72.95
64924;HTU21D;51436;44.692;39.214;2024-01-30T01:23:14;-2.15;73.03
64924;HTU21D;51436;44.692;39.214;2024-01-30T01:25:43;-2.18;72.98
64924;HTU21D;51436;44.692;39.214;2024-01-30T01:28:12;-2.24;73.03
64924;HTU21D;51436;44.692;39.214;2024-01-30T01:30:39;-2.27;73.11
64924;HTU21D;51436;44.692;39.214;2024-01-30T01:33:05;-2.30;73.11
64924;HTU21D;51436;44.692;39.214;2024-01-30T01:35:32;-2.30;73.07
64924;HTU21D;51436;44.692;39.214;2024-01-30T01:37:59;-2.27;73.04
64924;HTU21D;51436;44.692;39.214;2024-01-30T01:40:27;-2.17;72.93
64924;HTU21D;51436;44.692;39.214;2024-01-30T01:42:55;-2.10;72.72
64924;HTU21D;51436;44.692;39.214;2024-01-30T01:45:21;-2.04;72.62
64924;HTU21D;51436;44.692;39.214;2024-01-30T01:47:51;-2.07;72.53
64924;HTU21D;51436;44.692;39.214;2024-01-30T01:50:18;-2.09;72.64
64924;HTU21D;51436;44.692;39.214;2024-01-30T01:52:50;-2.08;72.61
64924;HTU21D;51436;44.692;39.214;2024-01-30T01:55:39;-2.09;72.53
64924;HTU21D;51436;44.692;39.214;2024-01-30T01:58:05;-2.06;72.64
64924;HTU21D;51436;44.692;39.214;2024-01-30T02:00:32;-2.08;72.58
64924;HTU21D;51436;44.692;39.214;2024-01-30T02:03:02;-2.10;72.53
64924;HTU21D;51436;44.692;39.214;2024-01-30T02:05:30;-2.16;72.60
64924;HTU21D;51436;44.692;39.214;2024-01-30T02:07:57;-2.22;72.64
64924;HTU21D;51436;44.692;39.214;2024-01-30T02:10:24;-2.22;72.64
64924;HTU21D;51436;44.692;39.214;2024-01-30T02:12:51;-2.27;72.60
64924;HTU21D;51436;44.692;39.214;2024-01-30T02:15:17;-2.29;72.57
64924;HTU21D;51436;44.692;39.214;2024-01-30T02:17:44;-2.37;72.54
64924;HTU21D;51436;44.692;39.214;2024-01-30T02:20:13;-2.44;72.64
64924;HTU21D;51436;44.692;39.214;2024-01-30T02:23:04;-2.49;72.54
64924;HTU21D;51436;44.692;39.214;2024-01-30T02:25:39;-2.53;72.72
64924;HTU21D;51436;44.692;39.214;2024-01-30T02:28:36;-2.57;72.70
64924;HTU21D;51436;44.692;39.214;2024-01-30T02:31:02;-2.56;72.83
64924;HTU21D;51436;44.692;39.214;2024-01-30T02:33:29;-2.59;72.90
64924;HTU21D;51436;44.692;39.214;2024-01-30T02:35:55;-2.64;72.96
64924;HTU21D;51436;44.692;39.214;2024-01-30T02:38:22;-2.65;73.04
64924;HTU21D;51436;44.692;39.214;2024-01-30T02:40:49;-2.63;72.97
64924;HTU21D;51436;44.692;39.214;2024-01-30T02:43:16;-2.65;72.93
64924;HTU21D;51436;44.692;39.214;2024-01-30T02:45:43;-2.67;72.96
64924;HTU21D;51436;44.692;39.214;2024-01-30T02:48:09;-2.64;72.88
64924;HTU21D;51436;44.692;39.214;2024-01-30T02:50:35;-2.66;72.89
64924;HTU21D;51436;44.692;39.214;2024-01-30T02:53:02;-2.68;72.93
64924;HTU21D;51436;44.692;39.214;2024-01-30T02:55:28;-2.69;72.88
64924;HTU21D;51436;44.692;39.214;2024-01-30T02:57:54;-2.74;72.99
64924;HTU21D;51436;44.692;39.214;2024-01-30T03:00:21;-2.71;72.93
64924;HTU21D;51436;44.692;39.214;2024-01-30T03:02:50;-2.72;72.88
64924;HTU21D;51436;44.692;39.214;2024-01-30T03:05:19;-2.73;72.85
64924;HTU21D;51436;44.692;39.214;2024-01-30T03:07:46;-2.71;72.93
64924;HTU21D;51436;44.692;39.214;2024-01-30T03:10:17;-2.72;72.81
64924;HTU21D;51436;44.692;39.214;2024-01-30T03:12:44;-2.67;72.86
64924;HTU21D;51436;44.692;39.214;2024-01-30T03:15:10;-2.72;72.94
64924;HTU21D;51436;44.692;39.214;2024-01-30T03:17:40;-2.72;72.93
64924;HTU21D;51436;44.692;39.214;2024-01-30T03:31:08;-2.82;73.06
64924;HTU21D;51436;44.692;39.214;2024-01-30T03:33:48;-2.91;73.09
64924;HTU21D;51436;44.692;39.214;2024-01-30T03:36:20;-2.94;73.28
64924;HTU21D;51436;44.692;39.214;2024-01-30T03:38:46;-2.92;73.31
64924;HTU21D;51436;44.692;39.214;2024-01-30T03:41:12;-2.94;73.35
64924;HTU21D;51436;44.692;39.214;2024-01-30T03:43:39;-2.90;73.35
64924;HTU21D;51436;44.692;39.214;2024-01-30T03:46:05;-2.88;73.38
64924;HTU21D;51436;44.692;39.214;2024-01-30T03:48:31;-2.90;73.45
64924;HTU21D;51436;44.692;39.214;2024-01-30T03:51:18;-2.89;73.48
64924;HTU21D;51436;44.692;39.214;2024-01-30T03:53:45;-2.86;73.43
64924;HTU21D;51436;44.692;39.214;2024-01-30T03:56:14;-2.84;73.35
64924;HTU21D;51436;44.692;39.214;2024-01-30T03:58:41;-2.89;73.41
64924;HTU21D;51436;44.692;39.214;2024-01-30T04:01:07;-2.88;73.42
64924;HTU21D;51436;44.692;39.214;2024-01-30T04:03:39;-2.86;73.48
64924;HTU21D;51436;44.692;39.214;2024-01-30T04:06:05;-2.81;73.35
64924;HTU21D;51436;44.692;39.214;2024-01-30T04:08:31;-2.79;73.38
64924;HTU21D;51436;44.692;39.214;2024-01-30T04:10:58;-2.71;73.29
64924;HTU21D;51436;44.692;39.214;2024-01-30T04:13:25;-2.67;73.25
64924;HTU21D;51436;44.692;39.214;2024-01-30T04:15:53;-2.67;73.24
64924;HTU21D;51436;44.692;39.214;2024-01-30T04:18:21;-2.71;73.28
64924;HTU21D;51436;44.692;39.214;2024-01-30T04:20:47;-2.76;73.41
64924;HTU21D;51436;44.692;39.214;2024-01-30T04:23:14;-2.69;73.39
64924;HTU21D;51436;44.692;39.214;2024-01-30T04:25:40;-2.64;73.16
64924;HTU21D;51436;44.692;39.214;2024-01-30T04:28:06;-2.65;73.19
64924;HTU21D;51436;44.692;39.214;2024-01-30T04:30:33;-2.67;73.19
64924;HTU21D;51436;44.692;39.214;2024-01-30T04:32:59;-2.75;73.40
64924;HTU21D;51436;44.692;39.214;2024-01-30T04:35:26;-2.78;73.40
64924;HTU21D;51436;44.692;39.214;2024-01-30T04:37:52;-2.77;73.34
64924;HTU21D;51436;44.692;39.214;2024-01-30T04:40:20;-2.81;73.41
64924;HTU21D;51436;44.692;39.214;2024-01-30T04:42:47;-2.82;73.47
64924;HTU21D;51436;44.692;39.214;2024-01-30T04:45:13;-2.80;73.43
64924;HTU21D;51436;44.692;39.214;2024-01-30T04:47:39;-2.80;73.41
64924;HTU21D;51436;44.692;39.214;2024-01-30T04:50:07;-2.80;73.35
64924;HTU21D;51436;44.692;39.214;2024-01-30T04:52:34;-2.82;73.39
64924;HTU21D;51436;44.692;39.214;2024-01-30T04:55:02;-2.89;73.46
64924;HTU21D;51436;44.692;39.214;2024-01-30T04:57:28;-2.92;73.55
64924;HTU21D;51436;44.692;39.214;2024-01-30T04:59:58;-2.93;73.60
64924;HTU21D;51436;44.692;39.214;2024-01-30T05:02:24;-2.94;73.62
64924;HTU21D;51436;44.692;39.214;2024-01-30T05:04:51;-2.91;73.57
64924;HTU21D;51436;44.692;39.214;2024-01-30T05:07:17;-2.88;73.56
64924;HTU21D;51436;44.692;39.214;2024-01-30T05:09:44;-2.80;73.41
64924;HTU21D;51436;44.692;39.214;2024-01-30T05:12:10;-2.72;73.28
64924;HTU21D;51436;44.692;39.214;2024-01-30T05:14:37;-2.65;73.13
64924;HTU21D;51436;44.692;39.214;2024-01-30T05:17:03;-2.59;73.03
64924;HTU21D;51436;44.692;39.214;2024-01-30T05:19:30;-2.63;72.91
64924;HTU21D;51436;44.692;39.214;2024-01-30T05:21:56;-2.87;73.26
64924;HTU21D;51436;44.692;39.214;2024-01-30T05:24:22;-2.89;73.42
64924;HTU21D;51436;44.692;39.214;2024-01-30T05:26:49;-2.97;73.45
64924;HTU21D;51436;44.692;39.214;2024-01-30T05:29:17;-2.96;73.45
64924;HTU21D;51436;44.692;39.214;2024-01-30T05:31:43;-2.95;73.38
64924;HTU21D;51436;44.692;39.214;2024-01-30T05:34:10;-2.89;73.23
64924;HTU21D;51436;44.692;39.214;2024-01-30T05:36:36;-2.87;73.15
64924;HTU21D;51436;44.692;39.214;2024-01-30T05:39:02;-2.86;73.18
64924;HTU21D;51436;44.692;39.214;2024-01-30T05:41:28;-2.89;73.11
64924;HTU21D;51436;44.692;39.214;2024-01-30T05:43:55;-2.94;73.25
64924;HTU21D;51436;44.692;39.214;2024-01-30T05:46:22;-2.96;73.35
64924;HTU21D;51436;44.692;39.214;2024-01-30T05:48:48;-2.95;73.38
64924;HTU21D;51436;44.692;39.214;2024-01-30T05:51:15;-2.90;73.27
64924;HTU21D;51436;44.692;39.214;2024-01-30T05:53:41;-2.79;73.12
64924;HTU21D;51436;44.692;39.214;2024-01-30T05:56:07;-2.69;73.04
64924;HTU21D;51436;44.692;39.214;2024-01-30T05:58:34;-2.64;72.86
64924;HTU21D;51436;44.692;39.214;2024-01-30T06:01:00;-2.58;72.83
64924;HTU21D;51436;44.692;39.214;2024-01-30T06:03:27;-2.54;72.64
64924;HTU21D;51436;44.692;39.214;2024-01-30T06:05:53;-2.56;72.70
64924;HTU21D;51436;44.692;39.214;2024-01-30T06:08:23;-2.57;72.63
64924;HTU21D;51436;44.692;39.214;2024-01-30T06:10:49;-2.62;72.77
64924;HTU21D;51436;44.692;39.214;2024-01-30T06:13:15;-2.65;72.83
64924;HTU21D;51436;44.692;39.214;2024-01-30T06:15:42;-2.66;72.87
64924;HTU21D;51436;44.692;39.214;2024-01-30T06:18:08;-2.62;72.77
64924;HTU21D;51436;44.692;39.214;2024-01-30T06:20:37;-2.59;72.58
64924;HTU21D;51436;44.692;39.214;2024-01-30T06:23:04;-2.59;72.65
64924;HTU21D;51436;44.692;39.214;2024-01-30T06:25:30;-2.65;72.61
64924;HTU21D;51436;44.692;39.214;2024-01-30T06:27:56;-2.74;72.84
64924;HTU21D;51436;44.692;39.214;2024-01-30T06:30:23;-2.76;72.88
64924;HTU21D;51436;44.692;39.214;2024-01-30T06:32:52;-2.77;72.84
64924;HTU21D;51436;44.692;39.214;2024-01-30T06:35:18;-2.65;72.70
64924;HTU21D;51436;44.692;39.214;2024-01-30T06:37:45;-2.62;72.57
64924;HTU21D;51436;44.692;39.214;2024-01-30T06:40:14;-2.60;72.57
64924;HTU21D;51436;44.692;39.214;2024-01-30T06:42:41;-2.58;72.53
64924;HTU21D;51436;44.692;39.214;2024-01-30T06:45:07;-2.57;72.55
64924;HTU21D;51436;44.692;39.214;2024-01-30T06:47:34;-2.57;72.59
64924;HTU21D;51436;44.692;39.214;2024-01-30T06:50:00;-2.53;72.56
64924;HTU21D;51436;44.692;39.214;2024-01-30T06:52:28;-2.51;72.42
64924;HTU21D;51436;44.692;39.214;2024-01-30T06:54:54;-2.50;72.45
64924;HTU21D;51436;44.692;39.214;2024-01-30T06:57:20;-2.49;72.36
64924;HTU21D;51436;44.692;39.214;2024-01-30T06:59:47;-2.54;72.41
64924;HTU21D;51436;44.692;39.214;2024-01-30T07:10:29;-2.44;72.22
64924;HTU21D;51436;44.692;39.214;2024-01-30T07:12:57;-2.34;72.23
64924;HTU21D;51436;44.692;39.214;2024-01-30T07:15:24;-2.26;72.06
64924;HTU21D;51436;44.692;39.214;2024-01-30T07:17:50;-2.23;72.01
64924;HTU21D;51436;44.692;39.214;2024-01-30T07:20:17;-2.26;72.09
64924;HTU21D;51436;44.692;39.214;2024-01-30T07:22:51;-2.18;71.98
64924;HTU21D;51436;44.692;39.214;2024-01-30T07:25:18;-2.16;71.83
64924;HTU21D;51436;44.692;39.214;2024-01-30T07:27:44;-2.15;71.96
64924;HTU21D;51436;44.692;39.214;2024-01-30T07:30:12;-2.15;71.93
64924;HTU21D;51436;44.692;39.214;2024-01-30T07:32:39;-2.10;71.96
64924;HTU21D;51436;44.692;39.214;2024-01-30T07:35:05;-2.07;71.98
64924;HTU21D;51436;44.692;39.214;2024-01-30T07:37:32;-2.02;71.90
64924;HTU21D;51436;44.692;39.214;2024-01-30T07:39:58;-2.04;71.90
64924;HTU21D;51436;44.692;39.214;2024-01-30T07:42:24;-2.12;72.03
64924;HTU21D;51436;44.692;39.214;2024-01-30T07:44:51;-2.07;72.07
64924;HTU21D;51436;44.692;39.214;2024-01-30T07:47:18;-2.03;71.95
64924;HTU21D;51436;44.692;39.214;2024-01-30T07:49:44;-2.02;71.92
64924;HTU21D;51436;44.692;39.214;2024-01-30T07:52:10;-1.98;71.93
64924;HTU21D;51436;44.692;39.214;2024-01-30T07:55:02;-1.87;71.71
64924;HTU21D;51436;44.692;39.214;2024-01-30T07:57:30;-1.84;71.70
64924;HTU21D;51436;44.692;39.214;2024-01-30T07:59:56;-1.82;71.71
64924;HTU21D;51436;44.692;39.214;2024-01-30T08:02:23;-1.72;71.61
64924;HTU21D;51436;44.692;39.214;2024-01-30T08:04:49;-1.73;71.60
64924;HTU21D;51436;44.692;39.214;2024-01-30T08:07:16;-1.69;71.63
64924;HTU21D;51436;44.692;39.214;2024-01-30T08:09:43;-1.53;71.44
64924;HTU21D;51436;44.692;39.214;2024-01-30T08:12:10;-1.36;71.09
64924;HTU21D;51436;44.692;39.214;2024-01-30T08:14:36;-1.35;71.06
64924;HTU21D;51436;44.692;39.214;2024-01-30T08:17:03;-1.34;71.05
64924;HTU21D;51436;44.692;39.214;2024-01-30T08:19:29;-1.31;71.14
64924;HTU21D;51436;44.692;39.214;2024-01-30T08:21:55;-1.29;71.05
64924;HTU21D;51436;44.692;39.214;2024-01-30T08:24:22;-1.26;71.06
64924;HTU21D;51436;44.692;39.214;2024-01-30T08:26:48;-1.23;71.06
64924;HTU21D;51436;44.692;39.214;2024-01-30T08:29:15;-1.14;70.96
64924;HTU21D;51436;44.692;39.214;2024-01-30T08:31:41;-1.10;70.82
64924;HTU21D;51436;44.692;39.214;2024-01-30T08:34:08;-1.04;70.84
64924;HTU21D;51436;44.692;39.214;2024-01-30T08:36:34;-0.96;70.66
64924;HTU21D;51436;44.692;39.214;2024-01-30T08:39:01;-0.95;70.68
64924;HTU21D;51436;44.692;39.214;2024-01-30T08:41:27;-1.00;70.80
64924;HTU21D;51436;44.692;39.214;2024-01-30T08:43:54;-0.98;70.99
64924;HTU21D;51436;44.692;39.214;2024-01-30T08:46:20;-0.87;70.80
64924;HTU21D;51436;44.692;39.214;2024-01-30T08:48:52;-0.83;70.80
64924;HTU21D;51436;44.692;39.214;2024-01-30T08:51:19;-0.67;70.58
64924;HTU21D;51436;44.692;39.214;2024-01-30T08:53:45;-0.54;70.43
64924;HTU21D;51436;44.692;39.214;2024-01-30T08:56:11;-0.47;70.29
64924;HTU21D;51436;44.692;39.214;2024-01-30T08:58:38;-0.51;70.42
64924;HTU21D;51436;44.692;39.214;2024-01-30T09:01:05;-0.52;70.48
64924;HTU21D;51436;44.692;39.214;2024-01-30T09:03:31;-0.51;70.49
64924;HTU21D;51436;44.692;39.214;2024-01-30T09:05:58;-0.52;70.59
64924;HTU21D;51436;44.692;39.214;2024-01-30T09:08:24;-0.55;70.57
64924;HTU21D;51436;44.692;39.214;2024-01-30T09:10:51;-0.59;70.70
64924;HTU21D;51436;44.692;39.214;2024-01-30T09:13:17;-0.59;70.73
64924;HTU21D;51436;44.692;39.214;2024-01-30T09:15:43;-0.57;70.73
64924;HTU21D;51436;44.692;39.214;2024-01-30T09:18:10;-0.54;70.76
64924;HTU21D;51436;44.692;39.214;2024-01-30T09:20:36;-0.57;70.74
64924;HTU21D;51436;44.692;39.214;2024-01-30T09:23:03;-0.56;70.79
64924;HTU21D;51436;44.692;39.214;2024-01-30T09:25:29;-0.54;70.73
64924;HTU21D;51436;44.692;39.214;2024-01-30T09:27:55;-0.58;70.71
64924;HTU21D;51436;44.692;39.214;2024-01-30T09:30:22;-0.64;70.94
64924;HTU21D;51436;44.692;39.214;2024-01-30T09:32:48;-0.56;70.84
64924;HTU21D;51436;44.692;39.214;2024-01-30T09:35:14;-0.56;70.83
64924;HTU21D;51436;44.692;39.214;2024-01-30T09:37:41;-0.46;70.80
64924;HTU21D;51436;44.692;39.214;2024-01-30T09:40:08;-0.30;70.55
64924;HTU21D;51436;44.692;39.214;2024-01-30T09:42:35;-0.15;70.23
64924;HTU21D;51436;44.692;39.214;2024-01-30T09:45:03;-0.03;70.03
64924;HTU21D;51436;44.692;39.214;2024-01-30T09:47:42;0.06;69.90
64924;HTU21D;51436;44.692;39.214;2024-01-30T09:50:10;0.15;69.87
64924;HTU21D;51436;44.692;39.214;2024-01-30T09:52:39;0.18;69.87
64924;HTU21D;51436;44.692;39.214;2024-01-30T09:55:08;0.27;69.81
64924;HTU21D;51436;44.692;39.214;2024-01-30T09:57:36;0.39;69.62
64924;HTU21D;51436;44.692;39.214;2024-01-30T10:00:04;0.43;69.58
64924;HTU21D;51436;44.692;39.214;2024-01-30T10:02:38;0.49;69.62
64924;HTU21D;51436;44.692;39.214;2024-01-30T10:05:05;0.53;69.54
64924;HTU21D;51436;44.692;39.214;2024-01-30T10:07:31;0.50;69.71
64924;HTU21D;51436;44.692;39.214;2024-01-30T10:09:58;0.47;69.79
64924;HTU21D;51436;44.692;39.214;2024-01-30T10:12:30;0.52;69.85
64924;HTU21D;51436;44.692;39.214;2024-01-30T10:14:56;0.62;69.68
64924;HTU21D;51436;44.692;39.214;2024-01-30T10:17:25;0.74;69.55
64924;HTU21D;51436;44.692;39.214;2024-01-30T10:19:53;0.87;69.32
64924;HTU21D;51436;44.692;39.214;2024-01-30T10:22:19;0.87;69.24
64924;HTU21D;51436;44.692;39.214;2024-01-30T10:24:46;0.78;69.49
64924;HTU21D;51436;44.692;39.214;2024-01-30T10:27:12;0.75;69.58
64924;HTU21D;51436;44.692;39.214;2024-01-30T10:29:38;0.68;69.82
64924;HTU21D;51436;44.692;39.214;2024-01-30T10:32:05;0.76;69.78
64924;HTU21D;51436;44.692;39.214;2024-01-30T10:34:32;0.82;69.63
64924;HTU21D;51436;44.692;39.214;2024-01-30T10:37:09;0.92;69.49
64924;HTU21D;51436;44.692;39.214;2024-01-30T10:39:42;1.03;69.34
64924;HTU21D;51436;44.692;39.214;2024-01-30T10:50:49;1.16;69.17
64924;HTU21D;51436;44.692;39.214;2024-01-30T10:53:18;1.16;69.12
64924;HTU21D;51436;44.692;39.214;2024-01-30T10:55:46;1.13;69.21
64924;HTU21D;51436;44.692;39.214;2024-01-30T10:58:14;1.14;69.25
64924;HTU21D;51436;44.692;39.214;2024-01-30T11:00:41;1.18;69.27
64924;HTU21D;51436;44.692;39.214;2024-01-30T11:03:08;1.29;69.12
64924;HTU21D;51436;44.692;39.214;2024-01-30T11:05:35;1.46;68.87
64924;HTU21D;51436;44.692;39.214;2024-01-30T11:08:12;1.56;68.73
64924;HTU21D;51436;44.692;39.214;2024-01-30T11:10:48;1.60;68.67
64924;HTU21D;51436;44.692;39.214;2024-01-30T11:13:14;1.61;68.67
64924;HTU21D;51436;44.692;39.214;2024-01-30T11:15:42;1.54;68.80
64924;HTU21D;51436;44.692;39.214;2024-01-30T11:18:08;1.47;68.99
64924;HTU21D;51436;44.692;39.214;2024-01-30T11:20:35;1.40;69.18
64924;HTU21D;51436;44.692;39.214;2024-01-30T11:23:11;1.48;69.09
64924;HTU21D;51436;44.692;39.214;2024-01-30T11:25:38;1.63;68.88
64924;HTU21D;51436;44.692;39.214;2024-01-30T11:28:04;1.79;68.60
64924;HTU21D;51436;44.692;39.214;2024-01-30T11:30:32;1.92;68.41
64924;HTU21D;51436;44.692;39.214;2024-01-30T11:33:09;2.03;68.23
64924;HTU21D;51436;44.692;39.214;2024-01-30T11:35:41;2.07;68.14
64924;HTU21D;51436;44.692;39.214;2024-01-30T11:38:10;1.96;68.29
64924;HTU21D;51436;44.692;39.214;2024-01-30T11:40:37;1.87;68.57
64924;HTU21D;51436;44.692;39.214;2024-01-30T11:43:06;1.98;68.55
64924;HTU21D;51436;44.692;39.214;2024-01-30T11:45:33;2.03;68.36
64924;HTU21D;51436;44.692;39.214;2024-01-30T11:48:00;2.02;68.42
64924;HTU21D;51436;44.692;39.214;2024-01-30T11:50:35;1.96;68.52
64924;HTU21D;51436;44.692;39.214;2024-01-30T11:53:04;1.96;68.64
64924;HTU21D;51436;44.692;39.214;2024-01-30T11:55:34;2.06;68.54
64924;HTU21D;51436;44.692;39.214;2024-01-30T11:58:03;2.13;68.35
64924;HTU21D;51436;44.692;39.214;2024-01-30T12:00:30;2.17;68.28
64924;HTU21D;51436;44.692;39.214;2024-01-30T12:02:59;2.20;68.23
64924;HTU21D;51436;44.692;39.214;2024-01-30T12:05:27;2.23;68.31
64924;HTU21D;51436;44.692;39.214;2024-01-30T12:07:54;2.34;68.17
64924;HTU21D;51436;44.692;39.214;2024-01-30T12:10:21;2.46;68.00
64924;HTU21D;51436;44.692;39.214;2024-01-30T12:12:49;2.57;67.79
64924;HTU21D;51436;44.692;39.214;2024-01-30T12:15:16;2.62;67.76
64924;HTU21D;51436;44.692;39.214;2024-01-30T12:17:43;2.55;67.85
64924;HTU21D;51436;44.692;39.214;2024-01-30T12:20:11;2.46;68.01
64924;HTU21D;51436;44.692;39.214;2024-01-30T12:22:42;2.41;68.20
64924;HTU21D;51436;44.692;39.214;2024-01-30T12:25:18;2.43;68.19
64924;HTU21D;51436;44.692;39.214;2024-01-30T12:27:48;2.46;68.11
64924;HTU21D;51436;44.692;39.214;2024-01-30T12:30:19;2.52;67.99
64924;HTU21D;51436;44.692;39.214;2024-01-30T12:32:48;2.49;68.06
64924;HTU21D;51436;44.692;39.214;2024-01-30T12:35:16;2.49;68.04
64924;HTU21D;51436;44.692;39.214;2024-01-30T12:37:45;2.49;68.00
64924;HTU21D;51436;44.692;39.214;2024-01-30T12:40:13;2.49;67.99
64924;HTU21D;51436;44.692;39.214;2024-01-30T12:42:41;2.47;68.05
64924;HTU21D;51436;44.692;39.214;2024-01-30T12:45:13;2.44;68.04
64924;HTU21D;51436;44.692;39.214;2024-01-30T12:47:41;2.40;68.10
64924;HTU21D;51436;44.692;39.214;2024-01-30T12:50:08;2.40;68.13
64924;HTU21D;51436;44.692;39.214;2024-01-30T12:52:35;2.43;68.07
64924;HTU21D;51436;44.692;39.214;2024-01-30T12:55:02;2.45;68.00
64924;HTU21D;51436;44.692;39.214;2024-01-30T12:57:30;2.43;68.00
64924;HTU21D;51436;44.692;39.214;2024-01-30T12:59:56;2.42;67.99
64924;HTU21D;51436;44.692;39.214;2024-01-30T13:02:23;2.45;67.98
64924;HTU21D;51436;44.692;39.214;2024-01-30T13:04:49;2.44;67.97
64924;HTU21D;51436;44.692;39.214;2024-01-30T13:07:16;2.44;67.99
64924;HTU21D;51436;44.692;39.214;2024-01-30T13:09:42;2.42;68.00
64924;HTU21D;51436;44.692;39.214;2024-01-30T13:12:08;2.40;68.03
64924;HTU21D;51436;44.692;39.214;2024-01-30T13:14:35;2.40;68.02
64924;HTU21D;51436;44.692;39.214;2024-01-30T13:17:01;2.38;68.00
64924;HTU21D;51436;44.692;39.214;2024-01-30T13:19:28;2.36;68.05
64924;HTU21D;51436;44.692;39.214;2024-01-30T13:21:54;2.36;68.01
64924;HTU21D;51436;44.692;39.214;2024-01-30T13:24:21;2.32;68.05
64924;HTU21D;51436;44.692;39.214;2024-01-30T13:26:47;2.32;68.06
64924;HTU21D;51436;44.692;39.214;2024-01-30T13:29:15;2.30;68.06
64924;HTU21D;51436;44.692;39.214;2024-01-30T13:31:41;2.28;68.10
64924;HTU21D;51436;44.692;39.214;2024-01-30T13:34:07;2.25;68.13
64924;HTU21D;51436;44.692;39.214;2024-01-30T13:36:34;2.25;68.13
64924;HTU21D;51436;44.692;39.214;2024-01-30T13:39:00;2.23;68.12
64924;HTU21D;51436;44.692;39.214;2024-01-30T13:41:27;2.19;68.17
64924;HTU21D;51436;44.692;39.214;2024-01-30T13:43:53;2.14;68.20
64924;HTU21D;51436;44.692;39.214;2024-01-30T13:46:20;2.10;68.22
64924;HTU21D;51436;44.692;39.214;2024-01-30T13:48:46;2.08;68.24
64924;HTU21D;51436;44.692;39.214;2024-01-30T13:51:13;2.02;68.27
64924;HTU21D;51436;44.692;39.214;2024-01-30T13:53:42;1.97;68.36
64924;HTU21D;51436;44.692;39.214;2024-01-30T13:56:11;1.95;68.42
64924;HTU21D;51436;44.692;39.214;2024-01-30T13:58:38;1.96;68.39
64924;HTU21D;51436;44.692;39.214;2024-01-30T14:01:04;1.96;68.39
64924;HTU21D;51436;44.692;39.214;2024-01-30T14:03:31;1.93;68.40
64924;HTU21D;51436;44.692;39.214;2024-01-30T14:05:58;1.94;68.39
64924;HTU21D;51436;44.692;39.214;2024-01-30T14:08:25;1.91;68.39
64924;HTU21D;51436;44.692;39.214;2024-01-30T14:10:54;1.86;68.45
64924;HTU21D;51436;44.692;39.214;2024-01-30T14:13:22;1.84;68.49
64924;HTU21D;51436;44.692;39.214;2024-01-30T14:15:48;1.82;68.48
64924;HTU21D;51436;44.692;39.214;2024-01-30T14:18:18;1.78;68.51
64924;HTU21D;51436;44.692;39.214;2024-01-30T14:31:46;1.51;68.75
64924;HTU21D;51436;44.692;39.214;2024-01-30T14:34:14;1.49;68.79
64924;HTU21D;51436;44.692;39.214;2024-01-30T14:36:40;1.46;68.83
64924;HTU21D;51436;44.692;39.214;2024-01-30T14:39:06;1.45;68.84
64924;HTU21D;51436;44.692;39.214;2024-01-30T14:41:33;1.43;68.87
64924;HTU21D;51436;44.692;39.214;2024-01-30T14:43:59;1.43;68.86
64924;HTU21D;51436;44.692;39.214;2024-01-30T14:46:26;1.43;68.82
64924;HTU21D;51436;44.692;39.214;2024-01-30T14:48:53;1.45;68.81
64924;HTU21D;51436;44.692;39.214;2024-01-30T14:51:20;1.41;68.84
64924;HTU21D;51436;44.692;39.214;2024-01-30T14:53:46;1.39;68.84
64924;HTU21D;51436;44.692;39.214;2024-01-30T14:56:13;1.38;68.86
64924;HTU21D;51436;44.692;39.214;2024-01-30T14:58:39;1.39;68.84
64924;HTU21D;51436;44.692;39.214;2024-01-30T15:01:06;1.35;68.83
64924;HTU21D;51436;44.692;39.214;2024-01-30T15:03:33;1.34;68.82
64924;HTU21D;51436;44.692;39.214;2024-01-30T15:06:01;1.34;68.84
64924;HTU21D;51436;44.692;39.214;2024-01-30T15:08:31;1.33;68.85
64924;HTU21D;51436;44.692;39.214;2024-01-30T15:10:58;1.32;68.85
64924;HTU21D;51436;44.692;39.214;2024-01-30T15:13:24;1.28;68.92
64924;HTU21D;51436;44.692;39.214;2024-01-30T15:15:51;1.25;68.95
64924;HTU21D;51436;44.692;39.214;2024-01-30T15:18:17;1.24;68.97
64924;HTU21D;51436;44.692;39.214;2024-01-30T15:20:43;1.20;68.98
64924;HTU21D;51436;44.692;39.214;2024-01-30T15:23:10;1.14;69.04
64924;HTU21D;51436;44.692;39.214;2024-01-30T15:25:36;1.12;69.06
64924;HTU21D;51436;44.692;39.214;2024-01-30T15:28:02;1.09;69.09
64924;HTU21D;51436;44.692;39.214;2024-01-30T15:30:29;1.07;69.09
64924;HTU21D;51436;44.692;39.214;2024-01-30T15:32:57;1.08;69.04
64924;HTU21D;51436;44.692;39.214;2024-01-30T15:35:23;1.05;69.13
64924;HTU21D;51436;44.692;39.214;2024-01-30T15:37:50;1.05;69.13
64924;HTU21D;51436;44.692;39.214;2024-01-30T15:40:16;1.04;69.15
64924;HTU21D;51436;44.692;39.214;2024-01-30T15:42:44;1.04;69.16
64924;HTU21D;51436;44.692;39.214;2024-01-30T15:45:11;1.04;69.16
64924;HTU21D;51436;44.692;39.214;2024-01-30T15:47:38;1.05;69.17
64924;HTU21D;51436;44.692;39.214;2024-01-30T15:50:07;1.04;69.15